• Join FlightAware (Why Join?)
  • Login
  • US Flag 
08:18PM EDT


 

Airport Tracker/Info


-or-


 

Live Flight TrackerFlight Track Log ✈ UAL284 ✈ 17-May-2012 ✈ KSNA - KSFO

Flight Track Log - Related Links

Times and Time Zones

All times are in EDT time to prevent confusion due to time zone crossing. See the UAL284 flight status page for this flight to view local times or setup timezone preferences in your user account.

Time Position Orientation Groundspeed Altitude Reporting Facility
EDT Latitude Longitude Course Direction KTS MPH feet Rate Location/Type
08:13PM 33.7068 -117.9174 159° South  Level FlightAware Approximate
08:14PM 33.7653 -118.0095 141° Southeast  Level FlightAware Approximate
08:14PM 33.6333 -117.8833 209° Southwest 139 160 2,300  Level Southern California TRACON
08:19PM 33.3056 -118.0969 283° West 291 335 15,300 2,460 Climbing Los Angeles Center
08:20PM 33.3269 -118.2044 304° West 258 297 17,800 2,520 Climbing Los Angeles Center
08:21PM 33.3817 -118.3003 315° West 273 314 20,400 2,340 Climbing Los Angeles Center
08:22PM 33.4531 -118.3867 314° West 324 373 22,500 2,040 Climbing Los Angeles Center
08:23PM 33.5244 -118.4758 312° West 355 409 24,500 1,620 Climbing Los Angeles Center
08:24PM 33.5875 -118.5597 312° West 368 423 25,800 1,500 Climbing Los Angeles Center
08:25PM 33.6625 -118.6594 314° West 379 436 27,500 1,980 Climbing Los Angeles Center
08:26PM 33.7378 -118.7539 312° West 390 449 29,800 1,200 Climbing Los Angeles Center
08:27PM 33.8108 -118.8514 313° West 390 449 30,000 480 Climbing Los Angeles Center
08:28PM 33.8839 -118.9461 312° West 390 449 30,800 1,200 Climbing Los Angeles Center
08:29PM 33.9628 -119.0514 312° West 390 449 32,400 1,260 Climbing Los Angeles Center
08:30PM 34.0356 -119.1492 313° West 396 456 33,400 1,140 Climbing Los Angeles Center
08:31PM 34.1103 -119.2447 312° West 396 456 34,700 1,620 Climbing Los Angeles Center
08:32PM 34.1828 -119.3428 312° West 391 450 36,700 1,380 Climbing Los Angeles Center
08:33PM 34.2533 -119.4386 309° West 391 450 37,500 600 Climbing Los Angeles Center
08:34PM 34.3133 -119.5289 314° West 391 450 38,000 240 Climbing Los Angeles Center
08:35PM 34.3900 -119.6253 312° West 386 444 38,000  Level Los Angeles Center
08:36PM 34.4664 -119.7267 315° West 399 459 38,000  Level Los Angeles Center
08:37PM 34.5450 -119.8208 320° Northwest 399 459 38,000  Level Los Angeles Center
08:38PM 34.6419 -119.9186 319° Northwest 406 467 38,000  Level Los Angeles Center
08:39PM 34.7269 -120.0083 317° Northwest 411 473 38,000  Level Los Angeles Center
08:40PM 34.7933 -120.0847 320° Northwest 411 473 38,000 -60 Level Los Angeles Center
08:41PM 34.8881 -120.1831 317° Northwest 411 473 37,900 -60 Descending Los Angeles Center
08:42PM 34.9706 -120.2758 318° Northwest 406 467 37,900  Level Los Angeles Center
08:43PM 35.0550 -120.3689 318° Northwest 401 461 37,900  Level Los Angeles Center
08:44PM 35.1375 -120.4594 317° Northwest 406 467 37,900  Level Los Angeles Center
08:46PM 35.2822 -120.6278 320° Northwest 395 455 38,000  Climbing Oakland Center
08:47PM 35.3700 -120.7189 324° Northwest 401 461 38,000 -60 Level Oakland Center
08:48PM 35.4619 -120.8003 324° Northwest 412 474 37,900 -60 Descending Oakland Center
08:49PM 35.5539 -120.8817 324° Northwest 412 474 37,900  Level Oakland Center
08:50PM 35.6497 -120.9658 324° Northwest 412 474 38,000 -60 Climbing Oakland Center
08:51PM 35.7436 -121.0503 323° Northwest 417 480 37,800 -900 Descending Oakland Center
08:52PM 35.8333 -121.1325 324° Northwest 417 480 36,300 -1,860 Descending Oakland Center
08:53PM 35.9250 -121.2147 324° Northwest 412 474 34,100 -2,220 Descending Oakland Center
08:54PM 36.0206 -121.2997 324° Northwest 417 480 32,000 -2,100 Descending Oakland Center
08:55PM 36.1122 -121.3822 323° Northwest 417 480 30,000 -2,040 Descending Oakland Center
08:56PM 36.2056 -121.4703 324° Northwest 417 480 28,000 -2,040 Descending Oakland Center
08:57PM 36.3011 -121.5558 323° Northwest 417 480 26,000 -2,040 Descending Oakland Center
08:58PM 36.3906 -121.6392 323° Northwest 417 480 24,000 -1,980 Descending Oakland Center
08:59PM 36.4797 -121.7225 326° Northwest 412 474 22,100 -1,860 Descending Oakland Center
09:00PM 36.5689 -121.7983 320° Northwest 401 461 20,300 -1,740 Descending Oakland Center
09:01PM 36.6475 -121.8819 332° Northwest 389 448 18,700 -1,680 Descending Oakland Center
09:02PM 36.7000 -121.9167 332° Northwest 405 466 17,700 -1,980 Descending Northern Cal TRACON
09:03PM 36.8000 -121.9833 352° North 376 433 15,700 -2,100 Descending Northern Cal TRACON
09:04PM 36.9000 -122.0000 342° North 365 420 13,600 -2,100 Descending Northern Cal TRACON
09:05PM 36.9833 -122.0333 352° North 345 397 11,500 -1,800 Descending Northern Cal TRACON
09:06PM 37.0833 -122.0500 332° Northwest 302 348 10,000 -780 Descending Northern Cal TRACON
09:07PM 37.1333 -122.0833 284° West 229 264 10,000  Level Northern Cal TRACON
09:08PM 37.1500 -122.1667 287° West 226 260 10,000 -600 Level Northern Cal TRACON
09:09PM 37.1667 -122.2333 270° West 221 254 8,900 -1,020 Descending Northern Cal TRACON
09:10PM 37.1667 -122.3000 302° West 217 250 8,000 -480 Descending Northern Cal TRACON
09:11PM 37.2000 -122.3667 332° Northwest 217 250 8,000 -300 Level Northern Cal TRACON
09:12PM 37.2500 -122.4000 345° North 208 239 7,400 -900 Descending Northern Cal TRACON
09:13PM 37.3000 -122.4167 38° Northeast 222 255 6,300 -780 Descending Northern Cal TRACON
09:14PM 37.3500 -122.3667 31° Northeast 229 264 6,000 -180 Descending Northern Cal TRACON
09:15PM 37.4167 -122.3167 90° East 230 265 6,000 -240 Level Northern Cal TRACON
09:16PM 37.4167 -122.2333 90° East 251 289 5,600 -600 Descending Northern Cal TRACON
09:17PM 37.4167 -122.1667 73° East 234 269 4,900 -840 Descending Northern Cal TRACON
09:18PM 37.4333 -122.1000 360° North 187 215 4,100 -480 Descending Northern Cal TRACON
09:19PM 37.4833 -122.1000 360° North 154 177 4,000 -120 Descending Northern Cal TRACON